Aviation Digital Data Service (ADDS)

Output produced by METARs form (0432 UTC 22 September 2017)
found at http://www.aviationweather.gov/adds/metars/
 
KTCC 212334Z 2200/2224 23016G26KT P6SM SKC 
     FM220100 19011KT P6SM FEW100 
     FM221600 19010G16KT P6SM FEW070 
     FM222200 17010G18KT P6SM SCT070 SCT200
       
KTCL 212329Z 2200/2224 00000KT P6SM SCT250 
     TEMPO 2209/2213 4SM BR SCT001 
     FM221500 09004KT P6SM SCT100
       
TAF AMD KTCM 220022Z 2200/2303 01006KT 9999 SCT040 QNH2993INS 
     BECMG 2204/2205 01009KT 9999 FEW030 SCT150 QNH2997INS 
     TEMPO 2212/2218 4800 BR 
     BECMG 2222/2223 32009KT 9999 FEW070 BKN150 QNH3002INS TX17/2200Z TN05/2214Z
       
KTCS 212322Z 2200/2224 22012G22KT P6SM SCT100 
     FM220300 26008KT P6SM SCT080 SCT200 
     FM221600 21010G18KT P6SM SCT090 SCT120 SCT250
       
KTEB 220247Z 2203/2224 36008KT P6SM SCT150 BKN250 
     FM221400 36012G18KT P6SM SCT040 BKN150
       
KTEX 212332Z 2200/2224 14016G26KT P6SM FEW130 
     FM220200 18015G23KT P6SM FEW120 SCT250 
     FM220800 17012G21KT P6SM FEW080 SCT200 
     FM221500 17017G35KT P6SM VCSH SCT050 BKN080 
     FM222000 14012G22KT P6SM VCSH OVC060
       
TAF KTIK 220100Z 2201/2307 15010G15KT 9999 FEW030 QNH2984INS 
     BECMG 2211/2212 16009KT 9999 FEW015 QNH2993INS 
     BECMG 2214/2215 18012G18KT 9999 SCT010 QNH2993INS 
     BECMG 2223/2224 16009KT 9999 FEW040 QNH2992INS TX33/2221Z TN23/2212Z
       
KTIX 212320Z 2200/2224 05010KT P6SM SCT030 SCT250 
     FM220200 05005KT P6SM SCT025 
     FM220600 03006KT P6SM VCSH SCT025 SCT060 
     FM221600 05011KT P6SM VCSH SCT030 BKN060 AMD NOT SKED 2201/2211
       
KTLH 212322Z 2200/2224 VRB06KT P6SM BKN100 
     FM221000 00000KT 5SM BR FEW100 
     FM221300 07007KT P6SM SCT040
       
KTMB 220149Z 2202/2224 05008KT P6SM SCT250 
     FM220400 VRB03KT P6SM SCT030 
     FM221400 07008KT P6SM VCSH SCT035 
     PROB30 2216/2222 TSRA BKN030CB
       
KTOI 212329Z 2200/2224 00000KT P6SM SCT250 
     TEMPO 2208/2212 4SM BR SCT001 
     FM221500 09004KT P6SM SCT100
       
KTOL 212324Z 2200/2224 VRB03KT P6SM FEW200 
     FM221000 00000KT 4SM BR SCT200 
     FM221400 VRB03KT P6SM FEW050
       
KTOP 212327Z 2200/2224 15015G24KT P6SM FEW150 
     FM220300 17011KT P6SM FEW250 WS012/19045KT 
     FM221400 17009KT P6SM FEW200 
     FM221800 17013G21KT P6SM FEW250
       
KTPA 220256Z 2203/2224 06003KT P6SM FEW250 
     FM221400 05006KT P6SM FEW020 SCT250 
     FM221800 04008KT P6SM VCTS SCT035CB
       
KTPH 212334Z 2200/2224 16008KT P6SM VCSH SCT015 SCT020 OVC100 
     TEMPO 2200/2203 BKN020 OVC100 
     FM220600 35012G22KT P6SM SCT030 BKN060 
     FM221200 35010KT P6SM SCT030 BKN060 
     FM221900 32008KT P6SM VCSH BKN060
       
KTRI 212323Z 2200/2224 00000KT P6SM SKC 
     FM220800 00000KT 3SM BR FEW250 
     TEMPO 2210/2212 1 1/2SM BR SCT003 
     FM221200 VRB03KT P6SM SCT045
       
KTRK 220036Z 2201/2224 VRB04KT P6SM VCSH BKN035 BKN080 
     FM221700 36006KT P6SM VCSH SCT035 BKN120
       
KTRM 212322Z 2200/2224 30020G30KT P6SM FEW004 
     TEMPO 2200/2204 2SM BLDU BKN009 
     FM220600 33014G24KT 6SM BLDU SKC 
     FM221200 33012KT P6SM SKC
       
KTTD 212332Z 2200/2224 VRB03KT P6SM SCT030 BKN050 BKN080 
     FM220300 00000KT P6SM SCT030 BKN060 
     FM221200 00000KT P6SM SCT007 OVC015 
     FM221800 00000KT P6SM SCT015 BKN035 
     FM222000 VRB03KT P6SM SCT040
       
KTTN 212323Z 2200/2224 01004KT P6SM FEW060 BKN250 
     FM221300 35008KT P6SM SCT060 BKN300 
     TEMPO 2214/2218 BKN060
       
KTUL 212332Z 2200/2224 16012G18KT P6SM FEW045 FEW150 
     FM220100 16011KT P6SM FEW150 
     FM221400 18011KT P6SM FEW028 
     FM221700 17012G21KT P6SM SCT050
       
KTUP 212332Z 2200/2224 VRB03KT P6SM VCSH BKN120 BKN250 
     FM220200 00000KT P6SM SCT250 
     TEMPO 2209/2212 5SM BR 
     FM221600 07004KT P6SM SCT045
       
KTUS 212320Z 2200/2224 22014G22KT P6SM FEW100 
     FM220200 23010KT P6SM SKC 
     FM220800 17006KT P6SM SKC 
     FM221700 21015G25KT P6SM FEW150
       
KTVC 212332Z 2200/2224 03007KT P6SM SCT250 
     FM220100 00000KT P6SM SCT250 
     FM221400 21006KT P6SM FEW035 FEW250 
     FM222000 24008KT P6SM FEW050
       
KTVL 212320Z 2200/2224 19010KT P6SM -RASN BKN030 OVC045 
     TEMPO 2200/2202 1SM -SN BR BKN010 OVC025 
     FM220400 VRB03KT P6SM VCSH BKN035 OVC080 
     FM221700 06007KT P6SM VCSH BKN040 OVC120
       
KTWF 212330Z 2200/2224 27010KT P6SM VCSH SCT025 OVC050 
     FM220200 22013KT P6SM OVC050 
     FM221500 26011KT P6SM BKN060
       
KTXK 212321Z 2200/2224 15006KT P6SM SCT050 SCT250 
     FM220600 15004KT P6SM SCT250 
     TEMPO 2211/2214 5SM BR BKN010 
     FM221400 17004KT P6SM SCT020 SCT250 
     TEMPO 2214/2216 BKN025 
     FM221600 16005KT P6SM SCT030 SCT045 SCT250
       
KTYR 212321Z 2200/2224 16008KT P6SM VCSH SCT050 BKN250 
     FM220100 16008KT P6SM SCT050 BKN250 
     TEMPO 2206/2210 BKN008 
     FM221000 16007KT P6SM BKN010 
     TEMPO 2210/2214 4SM BR BKN008 
     FM221400 17007KT P6SM BKN015 
     TEMPO 2214/2216 SCT025 
     FM221600 17010KT P6SM SCT035 SCT045 SCT250
       
KTYS 212323Z 2200/2224 VRB03KT P6SM FEW250 
     FM221500 02005KT P6SM SCT045